Terminal Aerodrome Forecast
Issued by NWS

Home | Current Version | Previous Version | Text Only | Print | Product List | Glossary On
Versions: 1 2 3 4 5 6 7 8 9 10 11 12 13 14 15 16 17 18 19 20 21 22 23 24 25 26 27
000
FTUS41 KPHI 041131
TAFPNE
TAF
KPNE 041131Z 0412/0512 24006KT 4SM BR SCT012 OVC060
      TEMPO 0412/0415 2SM -RADZ OVC012
     FM041500 25006KT 4SM -SHRA BR OVC012
     FM041800 27004KT 4SM -SHRA BR OVC008
     FM042200 30006KT 4SM -RA BR OVC005
     FM050300 33006KT 2SM -PL BR OVC005
     FM050700 34010KT 1/2SM SN VV002=

USA.gov is the U.S. government's official web portal to all federal, state and local government web resources and services.